createdAt,value
2023-05-23T00:00:41.557Z,30.97
2023-05-23T00:02:44.799Z,28.50
2023-05-23T00:04:49.439Z,28.13
2023-05-23T00:06:53.505Z,31.33
2023-05-23T00:08:57.616Z,33.43
2023-05-23T00:11:00.682Z,32.50
2023-05-23T00:13:03.853Z,29.67
2023-05-23T00:15:09.917Z,32.33
2023-05-23T00:17:13.183Z,28.13
2023-05-23T00:19:17.241Z,29.30
2023-05-23T00:21:21.898Z,29.27
2023-05-23T00:23:25.359Z,34.27
2023-05-23T00:25:34.364Z,38.93
2023-05-23T00:27:37.504Z,28.50
2023-05-23T00:29:40.633Z,32.53
2023-05-23T00:31:46.388Z,37.93
2023-05-23T00:33:50.620Z,32.77
2023-05-23T00:35:53.867Z,34.40
2023-05-23T00:37:58.282Z,32.30
2023-05-23T00:40:01.434Z,30.50
2023-05-23T00:42:06.452Z,29.80
2023-05-23T00:44:11.190Z,32.07
2023-05-23T00:46:14.410Z,29.37
2023-05-23T00:48:17.502Z,39.90
2023-05-23T00:50:20.907Z,32.20
2023-05-23T00:52:23.978Z,37.63
2023-05-23T00:54:31.504Z,35.37
2023-05-23T00:56:34.789Z,28.90
2023-05-23T00:58:37.860Z,37.80
2023-05-23T01:00:41.105Z,39.17
2023-05-23T01:02:46.260Z,31.00
2023-05-23T01:04:54.225Z,34.40
2023-05-23T01:06:57.918Z,33.70
2023-05-23T01:09:02.971Z,30.83
2023-05-23T01:11:13.216Z,33.40
2023-05-23T01:13:23.325Z,35.17
2023-05-23T01:15:30.512Z,30.60
2023-05-23T01:17:37.645Z,35.37
2023-05-23T01:19:53.325Z,36.37
2023-05-23T01:21:57.098Z,32.80
2023-05-23T01:24:24.348Z,35.97
2023-05-23T01:26:48.255Z,34.40
2023-05-23T01:28:56.916Z,36.10
2023-05-23T01:31:03.030Z,33.77
2023-05-23T01:33:06.294Z,35.20
2023-05-23T01:35:10.028Z,33.80
2023-05-23T01:37:14.732Z,33.77
2023-05-23T01:39:17.894Z,31.07
2023-05-23T01:41:21.273Z,35.37
2023-05-23T01:43:25.907Z,34.57
2023-05-23T01:45:30.901Z,27.53
2023-05-23T01:47:34.404Z,28.17
2023-05-23T01:49:38.658Z,37.20
2023-05-23T01:51:42.284Z,26.47
2023-05-23T01:53:45.458Z,27.33
2023-05-23T01:55:49.339Z,29.33
2023-05-23T01:57:53.376Z,31.37
2023-05-23T01:59:56.604Z,34.43
2023-05-23T02:02:01.255Z,34.10
2023-05-23T02:04:05.012Z,34.20
2023-05-23T02:06:08.215Z,35.83
2023-05-23T02:08:11.315Z,37.07
2023-05-23T02:10:14.637Z,41.70
2023-05-23T02:12:17.717Z,40.27
2023-05-23T02:14:21.061Z,44.20
2023-05-23T02:16:26.193Z,39.63
2023-05-23T02:18:30.782Z,42.97
2023-05-23T02:20:34.047Z,41.50
2023-05-23T02:22:37.149Z,44.33
2023-05-23T02:24:40.340Z,35.47
2023-05-23T02:26:43.419Z,42.77
2023-05-23T02:28:46.651Z,41.37
2023-05-23T02:30:51.835Z,41.50
2023-05-23T02:32:55.123Z,39.70
2023-05-23T02:34:59.741Z,43.17
2023-05-23T02:37:02.908Z,46.07
2023-05-23T02:39:06.631Z,44.97
2023-05-23T02:41:09.926Z,46.10
2023-05-23T02:43:13.311Z,43.50
2023-05-23T02:45:16.348Z,44.80
2023-05-23T02:47:19.448Z,45.40
2023-05-23T02:49:22.586Z,42.53
2023-05-23T02:51:28.615Z,38.20
2023-05-23T02:53:31.881Z,37.40
2023-05-23T02:55:35.135Z,39.50
2023-05-23T02:57:38.184Z,29.33
2023-05-23T02:59:41.271Z,38.37
2023-05-23T03:01:44.413Z,34.80
2023-05-23T03:03:47.569Z,39.07
2023-05-23T03:05:51.582Z,33.93
2023-05-23T03:07:56.075Z,36.97
2023-05-23T03:09:59.661Z,39.27
2023-05-23T03:12:02.715Z,38.83
2023-05-23T03:14:06.501Z,37.37
2023-05-23T03:16:09.629Z,37.23
2023-05-23T03:18:12.707Z,40.30
2023-05-23T03:20:15.749Z,45.03
2023-05-23T03:22:18.808Z,34.43
2023-05-23T03:24:23.256Z,32.63
2023-05-23T03:26:26.306Z,38.20
2023-05-23T03:28:29.347Z,35.17
2023-05-23T03:30:32.512Z,34.93
2023-05-23T03:32:36.012Z,30.90
2023-05-23T03:34:39.061Z,35.70
2023-05-23T03:36:42.110Z,34.30
2023-05-23T03:38:45.454Z,38.50
2023-05-23T03:40:50.069Z,31.77
2023-05-23T03:43:02.951Z,33.37
2023-05-23T03:45:07.513Z,35.67
2023-05-23T03:47:10.886Z,40.93
2023-05-23T03:49:16.671Z,38.23
2023-05-23T03:51:19.759Z,37.67
2023-05-23T03:53:22.917Z,35.07
2023-05-23T03:55:26.047Z,39.37
2023-05-23T03:57:30.867Z,36.87
2023-05-23T03:59:34.059Z,38.37
2023-05-23T04:01:41.352Z,40.17
2023-05-23T04:03:45.019Z,42.03
2023-05-23T04:05:48.517Z,41.80
2023-05-23T04:07:52.559Z,47.17
2023-05-23T04:09:55.866Z,50.47
2023-05-23T04:11:59.205Z,44.53
2023-05-23T04:14:05.071Z,41.87
2023-05-23T04:16:08.424Z,45.37
2023-05-23T04:18:11.529Z,49.30
2023-05-23T04:20:14.781Z,45.07
2023-05-23T04:22:18.168Z,47.27
2023-05-23T04:24:23.259Z,47.83
2023-05-23T04:26:26.435Z,48.43
2023-05-23T04:28:30.180Z,43.23
2023-05-23T04:30:34.657Z,51.10
2023-05-23T04:32:38.305Z,45.13
2023-05-23T04:34:42.136Z,51.13
2023-05-23T04:36:45.702Z,46.60
2023-05-23T04:38:49.366Z,48.87
2023-05-23T04:40:53.254Z,51.43
2023-05-23T04:43:21.950Z,55.13
2023-05-23T04:45:28.602Z,57.80
2023-05-23T04:47:56.563Z,51.93
2023-05-23T04:50:18.634Z,52.80
2023-05-23T04:52:21.991Z,51.57
2023-05-23T04:54:25.175Z,55.43
2023-05-23T04:56:29.777Z,59.70
2023-05-23T04:58:33.656Z,55.70
2023-05-23T05:00:40.979Z,55.03
2023-05-23T05:02:44.736Z,51.87
2023-05-23T05:04:49.318Z,48.73
2023-05-23T05:06:52.610Z,50.97
2023-05-23T05:08:55.975Z,48.23
2023-05-23T05:10:59.145Z,53.17
2023-05-23T05:13:02.360Z,58.93
2023-05-23T05:15:18.416Z,51.93
2023-05-23T05:17:25.153Z,54.97
2023-05-23T05:19:40.309Z,58.13
2023-05-23T05:21:44.789Z,57.00
2023-05-23T05:23:47.886Z,57.13
2023-05-23T05:25:53.221Z,49.57
2023-05-23T05:27:56.934Z,50.00
2023-05-23T05:30:04.925Z,54.93
2023-05-23T05:32:10.317Z,52.60
2023-05-23T05:34:13.736Z,57.73
2023-05-23T05:36:16.931Z,53.23
2023-05-23T05:38:22.968Z,51.27
2023-05-23T05:40:26.176Z,50.50
2023-05-23T05:42:29.346Z,53.67
2023-05-23T05:44:32.475Z,55.17
2023-05-23T05:46:35.902Z,50.93
2023-05-23T05:48:39.353Z,52.23
2023-05-23T05:50:45.665Z,52.80
2023-05-23T05:52:49.323Z,56.50
2023-05-23T05:54:53.788Z,48.63
2023-05-23T05:56:56.993Z,53.73
2023-05-23T05:59:00.806Z,55.60
2023-05-23T06:01:05.745Z,54.30
2023-05-23T06:03:08.996Z,58.50
2023-05-23T06:05:18.980Z,52.67
2023-05-23T06:07:22.796Z,50.87
2023-05-23T06:09:25.993Z,57.43
2023-05-23T06:11:30.460Z,52.27
2023-05-23T06:13:34.128Z,46.83
2023-05-23T06:15:37.263Z,51.20
2023-05-23T06:17:40.643Z,52.60
2023-05-23T06:19:44.237Z,50.63
2023-05-23T06:21:47.520Z,51.63
2023-05-23T06:23:52.394Z,57.00
2023-05-23T06:25:55.456Z,50.23
2023-05-23T06:28:00.760Z,49.83
2023-05-23T06:30:04.332Z,49.30
2023-05-23T06:32:08.157Z,51.90
2023-05-23T06:34:11.432Z,50.67
2023-05-23T06:36:15.660Z,48.03
2023-05-23T06:38:18.783Z,52.20
2023-05-23T06:40:21.912Z,48.27
2023-05-23T06:42:26.469Z,53.77
2023-05-23T06:44:41.767Z,48.70
2023-05-23T06:46:47.710Z,50.30
2023-05-23T06:49:02.693Z,52.07
2023-05-23T06:51:11.654Z,53.97
2023-05-23T06:53:18.843Z,49.50
2023-05-23T06:55:23.789Z,54.60
2023-05-23T06:57:26.886Z,46.17
2023-05-23T06:59:30.032Z,53.93
2023-05-23T07:01:34.502Z,50.50
2023-05-23T07:03:38.397Z,53.13
2023-05-23T07:05:43.372Z,53.07
2023-05-23T07:07:47.289Z,52.33
2023-05-23T07:09:51.062Z,52.57
2023-05-23T07:11:55.889Z,49.00
2023-05-23T07:14:00.553Z,52.20
2023-05-23T07:16:12.478Z,51.07
2023-05-23T07:18:27.861Z,46.13
2023-05-23T07:20:34.340Z,47.23
2023-05-23T07:22:46.281Z,44.17
2023-05-23T07:24:49.631Z,47.63
2023-05-23T07:26:53.314Z,48.80
2023-05-23T07:28:56.433Z,45.80
2023-05-23T07:30:59.612Z,52.33
2023-05-23T07:33:03.262Z,47.17
2023-05-23T07:35:08.801Z,47.20
2023-05-23T07:37:11.938Z,52.80
2023-05-23T07:39:22.195Z,43.97
2023-05-23T07:41:26.946Z,45.20
2023-05-23T07:43:30.061Z,46.43
2023-05-23T07:45:33.285Z,49.47
2023-05-23T07:47:37.157Z,45.67
2023-05-23T07:49:40.428Z,45.13
2023-05-23T07:51:44.922Z,48.73
2023-05-23T07:53:48.335Z,43.03
2023-05-23T07:55:51.596Z,44.83
2023-05-23T07:57:56.539Z,46.77
2023-05-23T08:00:01.102Z,40.10
2023-05-23T08:02:06.391Z,42.67
2023-05-23T08:04:09.573Z,45.43
2023-05-23T08:06:20.654Z,38.57
2023-05-23T08:08:25.477Z,26.77
2023-05-23T08:10:29.951Z,40.47
2023-05-23T08:12:40.214Z,38.90
2023-05-23T08:14:52.208Z,43.27
2023-05-23T08:17:19.189Z,42.10
2023-05-23T08:19:23.043Z,37.37
2023-05-23T08:21:26.945Z,38.77
2023-05-23T08:23:31.750Z,37.13
2023-05-23T08:25:34.969Z,35.60
2023-05-23T08:27:38.577Z,33.67
2023-05-23T08:29:52.720Z,44.60
2023-05-23T08:31:56.477Z,36.67
2023-05-23T08:34:00.616Z,40.77
2023-05-23T08:36:05.612Z,39.83
2023-05-23T08:38:09.251Z,40.20
2023-05-23T08:40:20.118Z,37.77
2023-05-23T08:42:30.547Z,39.23
2023-05-23T08:44:34.151Z,35.00
2023-05-23T08:46:42.442Z,42.73
2023-05-23T08:48:52.224Z,35.67
2023-05-23T08:50:56.092Z,35.27
2023-05-23T08:53:01.272Z,35.80
2023-05-23T08:55:06.255Z,40.20
2023-05-23T08:57:11.565Z,36.63
2023-05-23T08:59:18.985Z,39.83
2023-05-23T09:01:23.618Z,38.83
2023-05-23T09:03:30.173Z,38.10
2023-05-23T09:05:43.660Z,36.07
2023-05-23T09:07:48.131Z,36.70
2023-05-23T09:09:51.989Z,34.17
2023-05-23T09:11:56.651Z,35.83
2023-05-23T09:14:01.242Z,41.47
2023-05-23T09:16:06.277Z,37.93
2023-05-23T09:18:15.665Z,33.73
2023-05-23T09:20:19.324Z,33.13
2023-05-23T09:22:29.746Z,35.60
2023-05-23T09:24:41.549Z,35.33
2023-05-23T09:26:48.004Z,40.17
2023-05-23T09:28:51.613Z,39.00
2023-05-23T09:31:00.931Z,38.57
2023-05-23T09:33:05.896Z,39.10
2023-05-23T09:35:12.479Z,37.87
2023-05-23T09:37:19.040Z,37.40
2023-05-23T09:39:22.285Z,46.43
2023-05-23T09:41:26.681Z,33.57
2023-05-23T09:43:30.194Z,35.67
2023-05-23T09:45:34.358Z,36.03
2023-05-23T09:47:39.979Z,31.30
2023-05-23T09:49:44.782Z,40.20
2023-05-23T09:51:58.578Z,36.23
2023-05-23T09:54:01.745Z,40.10
2023-05-23T09:56:05.331Z,36.03
2023-05-23T09:58:09.330Z,36.17
2023-05-23T10:00:14.156Z,33.47
2023-05-23T10:02:19.595Z,40.80
2023-05-23T10:04:24.474Z,35.10
2023-05-23T10:06:31.034Z,33.30
2023-05-23T10:08:38.128Z,34.27
2023-05-23T10:11:32.383Z,44.47
2023-05-23T10:13:35.905Z,35.77
2023-05-23T10:15:41.029Z,38.70
2023-05-23T10:17:54.977Z,34.47
2023-05-23T10:20:02.567Z,36.77
2023-05-23T10:22:08.313Z,36.73
2023-05-23T10:24:12.893Z,41.30
2023-05-23T10:26:16.908Z,37.10
2023-05-23T10:28:20.947Z,30.30
2023-05-23T10:30:24.209Z,37.37
2023-05-23T10:32:27.635Z,32.37
2023-05-23T10:34:35.688Z,33.50
2023-05-23T10:36:46.138Z,37.77
2023-05-23T10:38:53.262Z,35.63
2023-05-23T10:41:02.688Z,32.70
2023-05-23T10:43:11.836Z,38.23
2023-05-23T10:45:19.345Z,34.83
2023-05-23T10:47:29.565Z,42.53
2023-05-23T10:49:40.086Z,37.77
2023-05-23T10:51:45.706Z,36.20
2023-05-23T10:53:54.987Z,36.93
2023-05-23T10:55:58.788Z,30.90
2023-05-23T10:58:12.565Z,36.13
2023-05-23T11:00:17.314Z,32.43
2023-05-23T11:02:23.874Z,27.93
2023-05-23T11:04:28.033Z,32.77
2023-05-23T11:06:34.084Z,29.03
2023-05-23T11:08:48.879Z,35.37
2023-05-23T11:10:56.724Z,31.90
2023-05-23T11:13:07.899Z,30.13
2023-05-23T11:15:24.024Z,32.57
2023-05-23T11:17:34.170Z,33.43
2023-05-23T11:19:37.495Z,32.73
2023-05-23T11:21:41.281Z,29.00
2023-05-23T11:23:45.964Z,33.30
2023-05-23T11:25:51.510Z,28.47
2023-05-23T11:27:55.303Z,32.20
2023-05-23T11:30:04.306Z,29.13
2023-05-23T11:32:16.882Z,29.27
2023-05-23T11:34:21.778Z,31.43
2023-05-23T11:36:25.113Z,34.67
2023-05-23T11:38:28.592Z,30.27
2023-05-23T11:40:34.551Z,27.53
2023-05-23T11:42:43.134Z,27.23
2023-05-23T11:44:50.357Z,31.43
2023-05-23T11:47:04.007Z,28.80
2023-05-23T11:49:12.137Z,28.83
2023-05-23T11:51:16.293Z,28.60
2023-05-23T11:53:21.613Z,27.70
2023-05-23T11:55:25.085Z,31.97
2023-05-23T11:57:29.896Z,27.67
2023-05-23T11:59:33.174Z,29.20
2023-05-23T12:01:38.448Z,28.90
2023-05-23T12:03:51.040Z,31.07
2023-05-23T12:05:55.992Z,28.13
2023-05-23T12:08:02.293Z,29.93
2023-05-23T12:10:06.744Z,26.93
2023-05-23T12:12:10.094Z,35.20
2023-05-23T12:14:17.695Z,27.93
2023-05-23T12:16:22.394Z,24.93
2023-05-23T12:18:26.970Z,29.93
2023-05-23T12:20:35.276Z,28.13
2023-05-23T12:22:38.716Z,32.50
2023-05-23T12:24:47.134Z,36.03
2023-05-23T12:26:51.767Z,28.27
2023-05-23T12:28:55.115Z,27.37
2023-05-23T12:31:13.525Z,7.45
2023-05-23T12:33:16.959Z,27.13
2023-05-23T12:35:20.176Z,26.33
2023-05-23T12:37:24.545Z,25.53
2023-05-23T12:39:29.320Z,26.83
2023-05-23T12:41:33.913Z,27.20
2023-05-23T12:43:39.752Z,26.83
2023-05-23T12:45:43.526Z,30.33
2023-05-23T12:47:48.358Z,27.47
2023-05-23T12:49:51.557Z,32.63
2023-05-23T12:51:54.779Z,28.87
2023-05-23T12:53:58.439Z,31.27
2023-05-23T12:56:02.706Z,27.57
2023-05-23T12:58:06.140Z,25.40
2023-05-23T13:00:10.951Z,28.57
2023-05-23T13:02:14.285Z,28.13
2023-05-23T13:04:19.353Z,25.47
2023-05-23T13:06:22.775Z,25.33
2023-05-23T13:08:25.988Z,29.70
2023-05-23T13:10:31.824Z,26.53
2023-05-23T13:12:35.363Z,27.80
2023-05-23T13:14:38.542Z,26.73
2023-05-23T13:16:42.026Z,32.80
2023-05-23T13:18:45.270Z,28.67
2023-05-23T13:20:49.972Z,28.10
2023-05-23T13:22:53.034Z,26.77
2023-05-23T13:24:56.456Z,25.90
2023-05-23T13:26:59.594Z,32.47
2023-05-23T13:29:04.229Z,29.50
2023-05-23T13:31:07.549Z,27.80
2023-05-23T13:33:12.086Z,28.47
2023-05-23T13:35:15.488Z,26.87
2023-05-23T13:37:20.124Z,28.67
2023-05-23T13:39:23.603Z,25.30
2023-05-23T13:41:27.555Z,32.37
2023-05-23T13:43:31.250Z,30.27
2023-05-23T13:45:34.643Z,31.93
2023-05-23T13:47:37.882Z,28.27
2023-05-23T13:49:41.508Z,32.03
2023-05-23T13:51:45.613Z,28.33
2023-05-23T13:53:50.417Z,12.80
2023-05-23T13:55:54.955Z,21.87
2023-05-23T13:57:58.259Z,29.90
2023-05-23T14:00:02.763Z,26.57
2023-05-23T14:02:11.944Z,31.03
2023-05-23T14:04:15.331Z,32.20
2023-05-23T14:06:18.934Z,26.70
2023-05-23T14:08:22.219Z,29.43
2023-05-23T14:10:27.098Z,28.90
2023-05-23T14:12:30.685Z,31.87
2023-05-23T14:14:34.090Z,26.27
2023-05-23T14:16:37.452Z,27.60
2023-05-23T14:18:40.659Z,27.87
2023-05-23T14:20:43.929Z,28.90
2023-05-23T14:22:47.243Z,30.67
2023-05-23T14:24:51.093Z,30.00
2023-05-23T14:26:56.212Z,28.37
2023-05-23T14:28:59.676Z,28.07
2023-05-23T14:31:02.812Z,28.10
2023-05-23T14:33:07.877Z,30.80
2023-05-23T14:35:13.395Z,26.97
2023-05-23T14:37:16.499Z,27.07
2023-05-23T14:39:19.883Z,29.27
2023-05-23T14:41:23.041Z,28.00
2023-05-23T14:43:28.695Z,27.90
2023-05-23T14:45:32.113Z,27.47
2023-05-23T14:47:35.490Z,30.53
2023-05-23T14:49:38.684Z,27.77
2023-05-23T14:51:49.748Z,26.60
2023-05-23T14:53:53.869Z,25.03
2023-05-23T14:55:57.223Z,24.40
2023-05-23T14:58:01.076Z,26.77
2023-05-23T15:00:06.724Z,28.67
2023-05-23T15:02:09.964Z,22.07
2023-05-23T15:04:13.195Z,24.13
2023-05-23T15:06:16.384Z,29.37
2023-05-23T15:08:19.604Z,26.27
2023-05-23T15:10:22.790Z,30.97
2023-05-23T15:12:26.860Z,30.03
2023-05-23T15:14:32.840Z,29.47
2023-05-23T15:16:37.496Z,26.47
2023-05-23T15:18:42.116Z,28.07
2023-05-23T15:20:45.827Z,29.13
2023-05-23T15:22:49.063Z,31.27
2023-05-23T15:24:52.386Z,23.97
2023-05-23T15:27:02.223Z,29.23
2023-05-23T15:29:12.509Z,28.93
2023-05-23T15:31:15.618Z,29.23
2023-05-23T15:33:20.238Z,32.50
2023-05-23T15:35:23.864Z,37.47
2023-05-23T15:37:27.048Z,28.73
2023-05-23T15:39:30.462Z,29.03
2023-05-23T15:41:33.577Z,23.67
2023-05-23T15:43:38.020Z,32.10
2023-05-23T15:45:42.451Z,28.87
2023-05-23T15:47:45.704Z,32.77
2023-05-23T15:49:50.900Z,32.10
2023-05-23T15:51:55.338Z,32.60
2023-05-23T15:54:01.360Z,28.77
2023-05-23T15:56:04.916Z,33.77
2023-05-23T15:58:09.487Z,26.07
2023-05-23T16:00:13.936Z,28.43
2023-05-23T16:02:18.991Z,32.67
2023-05-23T16:04:23.429Z,30.23
2023-05-23T16:06:28.287Z,28.60
2023-05-23T16:08:31.990Z,30.50
2023-05-23T16:10:35.665Z,28.90
2023-05-23T16:12:38.898Z,31.50
2023-05-23T16:14:42.382Z,30.17
2023-05-23T16:16:45.607Z,28.77
2023-05-23T16:18:50.088Z,32.83
2023-05-23T16:20:53.253Z,28.77
2023-05-23T16:22:57.718Z,28.00
2023-05-23T16:25:00.931Z,28.97
2023-05-23T16:27:04.519Z,27.73
2023-05-23T16:29:08.483Z,28.93
2023-05-23T16:31:16.728Z,33.27
2023-05-23T16:33:20.051Z,27.53
2023-05-23T16:35:23.279Z,27.17
2023-05-23T16:37:26.355Z,32.17
2023-05-23T16:39:30.811Z,26.37
2023-05-23T16:41:33.959Z,25.10
2023-05-23T16:43:37.089Z,29.20
2023-05-23T16:45:41.966Z,27.10
2023-05-23T16:47:45.432Z,33.73
2023-05-23T16:49:48.672Z,31.83
2023-05-23T16:51:51.828Z,29.07
2023-05-23T16:53:54.953Z,32.13
2023-05-23T16:56:04.410Z,31.67
2023-05-23T16:58:07.523Z,30.83
2023-05-23T17:00:11.884Z,35.60
2023-05-23T17:02:15.867Z,30.50
2023-05-23T17:04:20.500Z,33.67
2023-05-23T17:06:23.834Z,34.30
2023-05-23T17:08:26.990Z,27.63
2023-05-23T17:10:30.092Z,26.03
2023-05-23T17:12:34.646Z,30.47
2023-05-23T17:14:37.739Z,27.73
2023-05-23T17:16:41.096Z,39.20
2023-05-23T17:18:44.255Z,23.60
2023-05-23T17:20:47.482Z,34.53
2023-05-23T17:22:50.748Z,30.73
2023-05-23T17:24:53.905Z,27.57
2023-05-23T17:26:57.093Z,24.87
2023-05-23T17:29:01.647Z,23.10
2023-05-23T17:31:04.874Z,34.83
2023-05-23T17:33:08.098Z,26.47
2023-05-23T17:35:11.859Z,26.10
2023-05-23T17:37:15.165Z,28.47
2023-05-23T17:39:18.212Z,29.47
2023-05-23T17:41:23.053Z,36.03
2023-05-23T17:43:26.326Z,29.97
2023-05-23T17:45:31.523Z,35.40
2023-05-23T17:47:34.691Z,36.20
2023-05-23T17:49:38.779Z,30.13
2023-05-23T17:51:41.904Z,27.27
2023-05-23T17:53:45.071Z,32.80
2023-05-23T17:55:48.625Z,32.00
2023-05-23T17:57:51.866Z,24.10
2023-05-23T17:59:55.202Z,25.43
2023-05-23T18:01:59.808Z,29.87
2023-05-23T18:04:03.093Z,32.37
2023-05-23T18:06:06.760Z,34.17
2023-05-23T18:08:09.862Z,31.63
2023-05-23T18:10:13.181Z,28.13
2023-05-23T18:12:17.696Z,29.60
2023-05-23T18:14:21.523Z,31.97
2023-05-23T18:16:24.587Z,29.80
2023-05-23T18:18:29.150Z,33.37
2023-05-23T18:20:32.273Z,44.27
2023-05-23T18:22:35.384Z,29.30
2023-05-23T18:24:38.577Z,34.40
2023-05-23T18:26:43.112Z,33.17
2023-05-23T18:28:46.262Z,28.07
2023-05-23T18:30:49.725Z,30.70
2023-05-23T18:32:52.969Z,32.47
2023-05-23T18:34:57.620Z,29.77
2023-05-23T18:37:02.119Z,28.33
2023-05-23T18:39:05.512Z,30.30
2023-05-23T18:41:13.213Z,29.07
2023-05-23T18:43:17.833Z,29.00
2023-05-23T18:45:21.259Z,30.47
2023-05-23T18:47:24.563Z,36.70
2023-05-23T18:49:27.738Z,36.50
2023-05-23T18:51:32.337Z,26.63
2023-05-23T18:53:35.691Z,28.53
2023-05-23T18:55:39.212Z,30.77
2023-05-23T18:57:42.405Z,34.57
2023-05-23T18:59:45.564Z,33.87
2023-05-23T19:01:48.765Z,28.57
2023-05-23T19:03:52.106Z,28.90
2023-05-23T19:05:59.575Z,32.30
2023-05-23T19:08:04.449Z,26.27
2023-05-23T19:10:08.435Z,35.00
2023-05-23T19:12:11.694Z,37.07
2023-05-23T19:14:15.104Z,31.40
2023-05-23T19:16:20.443Z,30.47
2023-05-23T19:18:23.706Z,26.83
2023-05-23T19:20:26.925Z,34.07
2023-05-23T19:22:38.988Z,28.47
2023-05-23T19:24:48.073Z,33.33
2023-05-23T19:26:51.317Z,38.40
2023-05-23T19:28:54.978Z,26.80
2023-05-23T19:30:58.114Z,33.27
2023-05-23T19:33:01.781Z,29.53
2023-05-23T19:35:05.656Z,32.83
2023-05-23T19:37:09.446Z,27.73
2023-05-23T19:39:13.437Z,39.27
2023-05-23T19:41:20.152Z,37.87
2023-05-23T19:43:23.421Z,34.47
2023-05-23T19:45:26.840Z,30.63
2023-05-23T19:47:31.041Z,33.10
2023-05-23T19:49:34.378Z,35.67
2023-05-23T19:51:37.886Z,32.23
2023-05-23T19:53:41.638Z,32.30
2023-05-23T19:55:44.786Z,40.83
2023-05-23T19:57:49.429Z,33.03
2023-05-23T19:59:52.792Z,30.90
2023-05-23T20:01:56.053Z,36.93
2023-05-23T20:03:59.502Z,34.43
2023-05-23T20:06:02.657Z,26.47
2023-05-23T20:08:05.856Z,36.63
2023-05-23T20:10:09.948Z,27.83
2023-05-23T20:12:13.072Z,34.07
2023-05-23T20:14:17.644Z,29.77
2023-05-23T20:16:20.859Z,30.97
2023-05-23T20:18:24.122Z,32.30
2023-05-23T20:20:27.325Z,34.47
2023-05-23T20:22:30.501Z,27.43
2023-05-23T20:24:33.837Z,35.47
2023-05-23T20:26:37.285Z,29.57
2023-05-23T20:28:41.148Z,29.07
2023-05-23T20:30:45.989Z,32.27
2023-05-23T20:32:53.085Z,32.03
2023-05-23T20:34:56.309Z,33.53
2023-05-23T20:36:59.652Z,26.37
2023-05-23T20:39:02.759Z,34.07
2023-05-23T20:41:07.423Z,31.77
2023-05-23T20:43:10.630Z,35.67
2023-05-23T20:45:13.862Z,32.73
2023-05-23T20:47:18.825Z,33.17
2023-05-23T20:49:22.477Z,28.97
2023-05-23T20:51:25.799Z,32.37
2023-05-23T20:53:29.841Z,35.13
2023-05-23T20:55:35.380Z,33.17
2023-05-23T20:57:38.510Z,30.20
2023-05-23T20:59:41.836Z,34.17
2023-05-23T21:01:45.070Z,32.97
2023-05-23T21:03:49.628Z,35.40
2023-05-23T21:05:52.774Z,33.77
2023-05-23T21:07:55.833Z,36.03
2023-05-23T21:10:02.119Z,33.00
2023-05-23T21:12:05.873Z,35.63
2023-05-23T21:14:08.900Z,34.13
2023-05-23T21:16:14.741Z,32.30
2023-05-23T21:18:18.029Z,35.07
2023-05-23T21:20:22.573Z,34.40
2023-05-23T21:22:25.677Z,32.93
2023-05-23T21:24:29.632Z,34.87
2023-05-23T21:26:32.872Z,38.03
2023-05-23T21:28:36.061Z,36.00
2023-05-23T21:30:40.408Z,31.63
2023-05-23T21:32:44.797Z,38.77
2023-05-23T21:34:48.159Z,30.20
2023-05-23T21:36:52.717Z,39.57
2023-05-23T21:38:55.867Z,35.83
2023-05-23T21:40:59.089Z,35.30
2023-05-23T21:43:02.210Z,39.13
2023-05-23T21:45:06.118Z,37.47
2023-05-23T21:47:09.363Z,40.40
2023-05-23T21:49:12.491Z,35.80
2023-05-23T21:51:15.583Z,39.87
2023-05-23T21:53:20.145Z,31.77
2023-05-23T21:55:23.222Z,27.60
2023-05-23T21:57:26.303Z,31.57
2023-05-23T21:59:29.417Z,39.63
2023-05-23T22:01:33.057Z,43.07
2023-05-23T22:03:36.662Z,38.73
2023-05-23T22:05:40.008Z,43.60
2023-05-23T22:07:43.106Z,42.77
2023-05-23T22:09:47.513Z,40.90
2023-05-23T22:11:50.662Z,42.07
2023-05-23T22:13:53.730Z,32.63
2023-05-23T22:15:56.848Z,36.27
2023-05-23T22:18:00.103Z,46.70
2023-05-23T22:20:05.208Z,33.03
2023-05-23T22:22:09.871Z,20.10
2023-05-23T22:24:13.083Z,49.83
2023-05-23T22:26:17.705Z,49.97
2023-05-23T22:28:20.792Z,54.83
2023-05-23T22:30:24.038Z,42.70
2023-05-23T22:32:27.218Z,42.43
2023-05-23T22:34:31.006Z,46.73
2023-05-23T22:36:34.236Z,43.20
2023-05-23T22:38:37.512Z,37.10
2023-05-23T22:40:40.756Z,42.60
2023-05-23T22:42:45.360Z,44.97
2023-05-23T22:44:48.553Z,45.43
2023-05-23T22:46:52.121Z,39.53
2023-05-23T22:48:56.161Z,42.27
2023-05-23T22:50:59.607Z,40.07
2023-05-23T22:53:03.490Z,37.23
2023-05-23T22:55:08.257Z,46.23
2023-05-23T22:57:11.417Z,35.87
2023-05-23T22:59:16.082Z,36.57
2023-05-23T23:01:19.278Z,39.87
2023-05-23T23:03:22.643Z,41.80
2023-05-23T23:05:25.976Z,37.43
2023-05-23T23:07:29.038Z,37.43
2023-05-23T23:09:32.106Z,36.27
2023-05-23T23:11:35.244Z,36.77
2023-05-23T23:13:38.332Z,37.57
2023-05-23T23:15:44.015Z,32.40
2023-05-23T23:17:47.098Z,38.43
2023-05-23T23:19:51.597Z,38.63
2023-05-23T23:21:54.718Z,41.00
2023-05-23T23:23:58.445Z,37.90
2023-05-23T23:26:01.532Z,40.63
2023-05-23T23:28:04.905Z,38.37
2023-05-23T23:30:09.233Z,46.27
2023-05-23T23:32:13.729Z,39.80
2023-05-23T23:34:16.951Z,40.77
2023-05-23T23:36:20.052Z,40.77
2023-05-23T23:38:23.118Z,38.00
2023-05-23T23:40:26.449Z,40.07
2023-05-23T23:42:29.554Z,39.80
2023-05-23T23:44:32.624Z,37.67
2023-05-23T23:46:35.715Z,37.53
2023-05-23T23:48:40.193Z,28.40
2023-05-23T23:50:43.408Z,39.33
2023-05-23T23:52:46.701Z,38.10
2023-05-23T23:54:49.768Z,36.90
2023-05-23T23:56:52.831Z,40.53
2023-05-23T23:58:55.907Z,36.50
